Time;durP1;ratioP1;P1;durP2;ratioP2;P2;SDS_P1;SDS_P2;PMS_P1;PMS_P2;Temp;Humidity;BMP_temperature;BMP_pressure;BME280_temperature;BME280_humidity;BME280_pressure;Samples;Min_cycle;Max_cycle;Signal;HPM_P1;HPM_P2
2023/12/20 00:05:06;;;;;;;;;;;;;;;3.91;100.00;98720.06;435788;1255;126512;-65
2023/12/20 00:15:12;;;;;;;;;;;;;;;3.95;100.00;98706.19;437685;1253;125706;-61
2023/12/20 00:25:16;;;;;;;;;;;;;;;3.96;100.00;98703.17;436122;1254;126543;-61
2023/12/20 00:46:19;;;;;;;;;;;;;;;4.04;100.00;98685.98;435618;1254;125683;-61
2023/12/20 00:56:24;;;;;;;;;;;;;;;4.08;100.00;98675.75;435475;1255;125783;-62
2023/12/20 01:06:28;;;;;;;;;;;;;;;4.13;100.00;98673.91;435487;1256;126667;-63
2023/12/20 01:16:32;;;;;;;;;;;;;;;4.18;100.00;98676.40;435457;1254;125472;-62
2023/12/20 01:26:37;;;;;;;;;;;;;;;4.23;100.00;98665.43;436031;1253;125291;-62
2023/12/20 01:36:42;;;;;;;;;;;;;;;4.27;100.00;98653.77;435538;1254;126589;-61
2023/12/20 01:46:47;;;;;;;;;;;;;;;4.31;100.00;98641.80;435461;1251;125268;-61
2023/12/20 01:56:52;;;;;;;;;;;;;;;4.35;100.00;98632.59;436743;1254;126132;-61
2023/12/20 02:06:57;;;;;;;;;;;;;;;4.39;100.00;98612.92;436145;1255;127218;-61
2023/12/20 02:17:01;;;;;;;;;;;;;;;4.43;100.00;98600.23;435735;1255;127372;-62
2023/12/20 02:27:06;;;;;;;;;;;;;;;4.46;100.00;98592.98;436001;1256;126314;-62
2023/12/20 02:37:11;;;;;;;;;;;;;;;4.47;100.00;98589.95;435928;1256;125590;-60
2023/12/20 02:47:16;;;;;;;;;;;;;;;4.50;100.00;98587.02;435383;1256;126053;-61
2023/12/20 02:57:20;;;;;;;;;;;;;;;4.54;100.00;98579.06;435381;1251;125665;-61
2023/12/20 03:07:25;;;;;;;;;;;;;;;4.52;100.00;98577.77;435528;1255;125852;-59
2023/12/20 03:17:29;;;;;;;;;;;;;;;4.47;100.00;98572.48;435326;1255;125362;-62
2023/12/20 03:27:34;;;;;;;;;;;;;;;4.45;100.00;98554.76;435469;1256;126735;-61
2023/12/20 03:37:38;;;;;;;;;;;;;;;4.44;100.00;98553.73;435674;1256;126130;-61
2023/12/20 03:47:42;;;;;;;;;;;;;;;4.44;100.00;98549.42;435423;1256;125321;-62
2023/12/20 03:57:47;;;;;;;;;;;;;;;4.44;100.00;98560.20;436707;1256;127390;-60
2023/12/20 04:07:52;;;;;;;;;;;;;;;4.42;100.00;98560.27;435545;1256;126617;-61
2023/12/20 04:17:57;;;;;;;;;;;;;;;4.41;100.00;98560.31;435803;1254;138813;-61
2023/12/20 04:28:01;;;;;;;;;;;;;;;4.41;100.00;98563.62;435887;1257;126855;-61
2023/12/20 04:38:06;;;;;;;;;;;;;;;4.39;100.00;98558.35;435284;1257;125531;-62
2023/12/20 04:48:10;;;;;;;;;;;;;;;4.36;100.00;98549.86;435257;1255;125205;-62
2023/12/20 04:58:15;;;;;;;;;;;;;;;4.30;100.00;98543.23;435878;1256;168164;-62
2023/12/20 05:08:20;;;;;;;;;;;;;;;4.24;100.00;98540.84;435337;1256;125633;-61
2023/12/20 05:18:25;;;;;;;;;;;;;;;4.21;100.00;98541.52;435302;1256;126877;-61
2023/12/20 05:28:29;;;;;;;;;;;;;;;4.18;100.00;98538.34;436036;1252;125647;-61
2023/12/20 05:38:33;;;;;;;;;;;;;;;4.14;100.00;98540.98;435470;1256;126122;-61
2023/12/20 05:48:38;;;;;;;;;;;;;;;4.10;100.00;98549.19;438772;1251;126076;-61
2023/12/20 05:58:43;;;;;;;;;;;;;;;4.04;100.00;98548.28;438141;1255;125832;-61
2023/12/20 06:08:48;;;;;;;;;;;;;;;4.02;100.00;98540.61;436511;1254;126590;-62
2023/12/20 06:18:52;;;;;;;;;;;;;;;3.98;100.00;98537.55;438831;1254;125501;-63
2023/12/20 06:28:57;;;;;;;;;;;;;;;3.96;100.00;98534.02;434708;1256;127005;-61
2023/12/20 06:39:01;;;;;;;;;;;;;;;3.90;100.00;98527.03;435110;1256;125523;-62
2023/12/20 06:49:06;;;;;;;;;;;;;;;3.84;100.00;98528.20;435343;1257;125875;-62
2023/12/20 06:59:11;;;;;;;;;;;;;;;3.83;100.00;98529.33;435205;1257;126192;-65
2023/12/20 07:09:15;;;;;;;;;;;;;;;3.83;100.00;98537.27;435515;1251;125673;-65
2023/12/20 07:19:20;;;;;;;;;;;;;;;3.82;100.00;98544.60;435786;1251;126301;-65
2023/12/20 07:29:24;;;;;;;;;;;;;;;3.79;100.00;98545.08;435391;1256;126811;-65
2023/12/20 07:39:29;;;;;;;;;;;;;;;3.79;100.00;98555.30;435012;1251;126503;-63
2023/12/20 07:49:33;;;;;;;;;;;;;;;3.82;100.00;98555.69;435300;1251;126165;-64
2023/12/20 07:59:38;;;;;;;;;;;;;;;3.84;100.00;98549.55;435117;1252;126433;-64
2023/12/20 08:09:43;;;;;;;;;;;;;;;3.85;100.00;98551.20;435211;1251;125537;-64
2023/12/20 08:19:48;;;;;;;;;;;;;;;3.89;100.00;98546.48;434745;1256;126427;-64
2023/12/20 08:29:52;;;;;;;;;;;;;;;3.95;100.00;98541.16;434795;1255;125584;-65
2023/12/20 08:39:56;;;;;;;;;;;;;;;3.98;100.00;98543.09;435078;1251;126753;-65
2023/12/20 08:50:01;;;;;;;;;;;;;;;4.01;100.00;98536.30;435104;1254;125359;-64
2023/12/20 09:00:08;;;;;;;;;;;;;;;4.06;100.00;98533.27;435800;1251;125747;-64
2023/12/20 09:10:12;;;;;;;;;;;;;;;4.10;100.00;98533.58;435737;1251;127096;-64
2023/12/20 09:20:18;;;;;;;;;;;;;;;4.13;100.00;98530.47;435182;1251;126033;-63
2023/12/20 09:30:22;;;;;;;;;;;;;;;4.16;100.00;98531.02;435294;1255;126216;-64
2023/12/20 09:40:33;;;;;;;;;;;;;;;4.22;100.00;98526.21;435068;1251;127493;-66
2023/12/20 09:50:37;;;;;;;;;;;;;;;4.23;100.00;98523.21;435155;1251;126367;-65
2023/12/20 10:00:42;;;;;;;;;;;;;;;4.26;100.00;98513.52;435276;1251;125336;-65
2023/12/20 10:10:47;;;;;;;;;;;;;;;4.32;100.00;98501.04;434941;1251;125815;-65
2023/12/20 10:20:52;;;;;;;;;;;;;;;4.41;100.00;98496.20;435596;1251;125686;-64
2023/12/20 10:30:57;;;;;;;;;;;;;;;4.43;100.00;98490.73;435502;1251;125352;-65
2023/12/20 10:41:02;;;;;;;;;;;;;;;4.51;100.00;98479.88;435520;1251;125636;-65
2023/12/20 10:51:07;;;;;;;;;;;;;;;4.52;100.00;98485.73;435353;1251;126545;-65
2023/12/20 11:01:13;;;;;;;;;;;;;;;4.46;100.00;98483.09;434995;1251;125447;-64
2023/12/20 11:11:22;;;;;;;;;;;;;;;4.46;100.00;98474.98;435737;1251;125668;-64
2023/12/20 11:21:31;;;;;;;;;;;;;;;4.51;100.00;98471.06;435075;1254;125448;-66
2023/12/20 11:31:42;;;;;;;;;;;;;;;4.49;100.00;98465.11;436754;1251;126504;-64
2023/12/20 11:41:46;;;;;;;;;;;;;;;4.52;100.00;98460.62;435102;1254;126506;-65
2023/12/20 11:51:51;;;;;;;;;;;;;;;4.51;100.00;98452.52;435920;1254;127831;-65
2023/12/20 12:02:00;;;;;;;;;;;;;;;4.52;100.00;98445.16;435739;1250;125623;-64
2023/12/20 12:12:07;;;;;;;;;;;;;;;4.61;100.00;98433.06;435340;1251;125427;-64
2023/12/20 12:22:16;;;;;;;;;;;;;;;4.69;100.00;98429.11;436815;1251;126228;-65
2023/12/20 12:32:21;;;;;;;;;;;;;;;4.61;100.00;98419.52;435699;1254;126108;-64
2023/12/20 12:42:28;;;;;;;;;;;;;;;4.53;100.00;98403.49;435284;1251;125182;-64
2023/12/20 12:52:33;;;;;;;;;;;;;;;4.49;100.00;98405.12;435559;1250;126619;-65
2023/12/20 13:02:41;;;;;;;;;;;;;;;4.35;100.00;98390.34;435757;1251;125936;-66
2023/12/20 13:12:46;;;;;;;;;;;;;;;4.25;100.00;98390.02;435664;1254;126969;-64
2023/12/20 13:22:51;;;;;;;;;;;;;;;4.14;100.00;98396.88;435089;1251;125629;-64
2023/12/20 13:32:55;;;;;;;;;;;;;;;4.04;100.00;98388.41;435527;1253;125444;-64
2023/12/20 13:42:59;;;;;;;;;;;;;;;3.89;100.00;98387.91;435617;1251;125855;-65
2023/12/20 13:53:05;;;;;;;;;;;;;;;3.79;100.00;98392.73;435461;1251;126884;-65
2023/12/20 14:03:09;;;;;;;;;;;;;;;3.72;100.00;98378.42;435521;1251;126918;-64
2023/12/20 14:13:13;;;;;;;;;;;;;;;3.70;100.00;98384.77;435196;1254;125497;-64
2023/12/20 14:23:18;;;;;;;;;;;;;;;3.68;100.00;98385.10;435056;1254;126158;-65
2023/12/20 14:33:22;;;;;;;;;;;;;;;3.66;100.00;98386.93;435348;1253;125866;-65
2023/12/20 14:43:27;;;;;;;;;;;;;;;3.64;100.00;98391.32;435243;1250;182769;-65
2023/12/20 14:53:31;;;;;;;;;;;;;;;3.60;100.00;98385.13;437300;1250;126126;-65
2023/12/20 15:03:36;;;;;;;;;;;;;;;3.42;100.00;98379.34;435016;1251;126228;-64
2023/12/20 15:13:42;;;;;;;;;;;;;;;3.34;100.00;98383.23;435696;1250;125376;-64
2023/12/20 15:23:52;;;;;;;;;;;;;;;3.30;100.00;98369.98;435183;1250;126297;-65
2023/12/20 15:33:57;;;;;;;;;;;;;;;3.28;100.00;98362.81;435039;1251;126673;-65
2023/12/20 15:44:01;;;;;;;;;;;;;;;3.27;100.00;98345.08;435654;1254;125498;-63
2023/12/20 15:54:08;;;;;;;;;;;;;;;3.25;100.00;98340.64;435194;1250;125514;-64
2023/12/20 16:04:12;;;;;;;;;;;;;;;3.26;100.00;98333.00;436267;1254;125649;-64
2023/12/20 16:14:18;;;;;;;;;;;;;;;3.24;100.00;98325.69;435149;1252;138608;-65
2023/12/20 16:24:22;;;;;;;;;;;;;;;3.20;100.00;98322.39;437189;1252;125316;-64
2023/12/20 16:34:27;;;;;;;;;;;;;;;3.20;100.00;98328.46;435172;1254;126360;-65
2023/12/20 16:44:32;;;;;;;;;;;;;;;3.14;100.00;98302.66;435178;1251;125311;-65
2023/12/20 16:54:36;;;;;;;;;;;;;;;3.10;100.00;98289.23;435178;1251;126270;-64
2023/12/20 17:04:41;;;;;;;;;;;;;;;3.12;100.00;98288.41;436409;1254;126434;-64
2023/12/20 17:14:46;;;;;;;;;;;;;;;3.15;100.00;98266.98;435128;1250;126418;-65
2023/12/20 17:24:50;;;;;;;;;;;;;;;3.19;100.00;98246.92;436466;1250;125492;-64
2023/12/20 17:34:54;;;;;;;;;;;;;;;3.26;100.00;98237.35;434977;1254;125596;-64
2023/12/20 17:44:59;;;;;;;;;;;;;;;3.33;100.00;98222.11;435308;1250;125736;-64
2023/12/20 17:55:04;;;;;;;;;;;;;;;3.38;100.00;98213.33;435087;1255;126158;-65
2023/12/20 18:05:09;;;;;;;;;;;;;;;3.44;100.00;98216.65;435800;1254;125575;-64
2023/12/20 18:15:14;;;;;;;;;;;;;;;3.42;100.00;98210.84;435852;1250;125564;-63
2023/12/20 18:25:19;;;;;;;;;;;;;;;3.40;100.00;98211.30;435023;1251;126072;-64
2023/12/20 18:35:24;;;;;;;;;;;;;;;3.42;100.00;98215.35;435082;1254;126694;-63
2023/12/20 18:45:28;;;;;;;;;;;;;;;3.48;100.00;98221.77;435228;1255;125589;-64
2023/12/20 18:55:32;;;;;;;;;;;;;;;3.54;100.00;98234.77;435512;1251;125161;-64
2023/12/20 19:05:37;;;;;;;;;;;;;;;3.32;100.00;98268.14;435758;1250;127280;-63
2023/12/20 19:15:41;;;;;;;;;;;;;;;3.02;100.00;98285.99;435614;1250;125850;-63
2023/12/20 19:25:46;;;;;;;;;;;;;;;2.89;100.00;98314.05;435364;1251;125822;-62
2023/12/20 19:35:50;;;;;;;;;;;;;;;2.74;100.00;98320.16;435307;1251;126349;-62
2023/12/20 19:45:54;;;;;;;;;;;;;;;2.50;100.00;98318.27;435079;1251;125683;-62
2023/12/20 19:55:59;;;;;;;;;;;;;;;2.13;100.00;98314.42;435165;1251;125276;-62
2023/12/20 20:06:04;;;;;;;;;;;;;;;2.14;100.00;98311.94;435048;1251;126269;-62
2023/12/20 20:16:08;;;;;;;;;;;;;;;2.35;100.00;98314.89;435113;1256;125493;-63
2023/12/20 20:26:13;;;;;;;;;;;;;;;2.51;100.00;98314.45;435158;1250;125608;-62
2023/12/20 20:36:17;;;;;;;;;;;;;;;2.57;100.00;98317.43;435221;1254;125430;-62
2023/12/20 20:46:24;;;;;;;;;;;;;;;2.50;100.00;98322.42;435234;1254;127353;-65
2023/12/20 20:56:29;;;;;;;;;;;;;;;2.43;100.00;98324.48;436836;1254;126612;-65
2023/12/20 21:06:33;;;;;;;;;;;;;;;2.48;100.00;98329.95;435057;1254;125517;-66
2023/12/20 21:16:38;;;;;;;;;;;;;;;2.57;100.00;98336.23;435398;1254;125878;-65
2023/12/20 21:26:43;;;;;;;;;;;;;;;2.65;100.00;98350.17;435400;1256;127812;-66
2023/12/20 21:36:48;;;;;;;;;;;;;;;2.68;100.00;98351.57;436916;1256;125573;-65
2023/12/20 21:46:53;;;;;;;;;;;;;;;2.70;100.00;98331.39;435638;1256;125576;-65
2023/12/20 21:56:57;;;;;;;;;;;;;;;2.71;100.00;98331.71;435568;1251;126873;-65
2023/12/20 22:07:01;;;;;;;;;;;;;;;2.72;100.00;98339.81;435657;1254;125512;-66
2023/12/20 22:17:06;;;;;;;;;;;;;;;2.73;100.00;98343.05;438080;1254;126450;-65
2023/12/20 22:27:10;;;;;;;;;;;;;;;2.71;100.00;98337.40;435587;1255;126142;-65
2023/12/20 22:37:15;;;;;;;;;;;;;;;2.69;100.00;98318.02;435231;1256;126762;-66
2023/12/20 22:47:19;;;;;;;;;;;;;;;2.68;100.00;98323.77;435547;1256;126348;-65
2023/12/20 22:57:25;;;;;;;;;;;;;;;2.66;100.00;98309.69;435123;1256;125907;-66
2023/12/20 23:07:29;;;;;;;;;;;;;;;2.62;100.00;98307.79;435892;1254;125508;-65
2023/12/20 23:17:34;;;;;;;;;;;;;;;2.58;100.00;98291.95;434986;1256;126504;-65
2023/12/20 23:27:39;;;;;;;;;;;;;;;2.47;100.00;98265.39;435124;1254;125993;-65
2023/12/20 23:37:47;;;;;;;;;;;;;;;2.21;100.00;98246.84;435226;1257;125346;-65
2023/12/20 23:47:52;;;;;;;;;;;;;;;2.13;100.00;98237.77;434987;1254;127043;-65
2023/12/20 23:57:57;;;;;;;;;;;;;;;2.17;100.00;98235.14;435044;1256;126849;-65
